createdAt,value
2017-11-06T00:00:37.101Z,12.60
2017-11-06T00:03:04.655Z,12.90
2017-11-06T00:05:32.232Z,12.23
2017-11-06T00:07:59.803Z,11.50
2017-11-06T00:10:27.347Z,11.87
2017-11-06T00:12:54.948Z,13.20
2017-11-06T00:15:22.534Z,13.03
2017-11-06T00:17:50.080Z,12.90
2017-11-06T00:20:17.644Z,13.30
2017-11-06T00:22:45.197Z,13.17
2017-11-06T00:25:13.152Z,13.20
2017-11-06T00:27:40.695Z,12.30
2017-11-06T00:30:08.249Z,12.30
2017-11-06T00:32:35.905Z,13.13
2017-11-06T00:35:03.520Z,12.40
2017-11-06T00:37:31.097Z,12.77
2017-11-06T00:39:58.649Z,13.57
2017-11-06T00:42:26.303Z,13.27
2017-11-06T00:44:53.867Z,13.53
2017-11-06T00:47:21.446Z,13.20
2017-11-06T00:49:49.035Z,12.80
2017-11-06T00:52:16.593Z,13.90
2017-11-06T00:54:44.169Z,12.93
2017-11-06T00:57:11.965Z,13.80
2017-11-06T00:59:39.909Z,12.43
2017-11-06T01:02:07.450Z,12.90
2017-11-06T01:04:35.001Z,12.77
2017-11-06T01:07:02.581Z,13.27
2017-11-06T01:09:30.179Z,12.57
2017-11-06T01:11:57.755Z,13.20
2017-11-06T01:14:25.304Z,13.00
2017-11-06T01:16:52.893Z,13.10
2017-11-06T01:19:20.467Z,13.17
2017-11-06T01:21:48.101Z,12.77
2017-11-06T01:24:15.713Z,12.70
2017-11-06T01:26:43.275Z,11.77
2017-11-06T01:29:10.849Z,11.73
2017-11-06T01:31:38.969Z,9.77
2017-11-06T01:34:06.513Z,9.90
2017-11-06T01:36:34.258Z,9.13
2017-11-06T01:39:01.816Z,9.10
2017-11-06T01:41:29.367Z,7.90
2017-11-06T01:43:56.908Z,8.47
2017-11-06T01:46:24.759Z,9.37
2017-11-06T01:48:52.292Z,8.90
2017-11-06T01:51:19.845Z,8.33
2017-11-06T01:53:47.411Z,8.30
2017-11-06T01:56:14.953Z,7.73
2017-11-06T01:58:42.863Z,6.97
2017-11-06T02:01:10.395Z,6.57
2017-11-06T02:03:37.935Z,7.20
2017-11-06T02:06:05.492Z,7.40
2017-11-06T02:08:33.055Z,6.90
2017-11-06T02:11:00.887Z,7.33
2017-11-06T02:13:28.429Z,8.33
2017-11-06T02:15:55.969Z,7.87
2017-11-06T02:18:23.552Z,8.43
2017-11-06T02:20:51.092Z,7.93
2017-11-06T02:23:18.976Z,7.60
2017-11-06T02:25:46.514Z,7.90
2017-11-06T02:28:14.050Z,7.57
2017-11-06T02:30:41.626Z,8.10
2017-11-06T02:33:09.218Z,7.70
2017-11-06T02:35:36.790Z,7.30
2017-11-06T02:38:04.354Z,7.40
2017-11-06T02:40:31.912Z,7.53
2017-11-06T02:42:59.447Z,6.93
2017-11-06T02:45:27.029Z,7.07
2017-11-06T02:47:54.572Z,7.47
2017-11-06T02:50:22.114Z,5.80
2017-11-06T02:52:49.679Z,5.80
2017-11-06T02:55:17.236Z,4.83
2017-11-06T02:57:44.783Z,5.00
2017-11-06T03:00:12.368Z,5.37
2017-11-06T03:02:39.931Z,5.40
2017-11-06T03:05:07.466Z,5.23
2017-11-06T03:07:35.370Z,5.20
2017-11-06T03:10:02.902Z,4.90
2017-11-06T03:12:30.484Z,5.53
2017-11-06T03:14:58.057Z,6.47
2017-11-06T03:17:25.580Z,5.70
2017-11-06T03:19:53.151Z,5.87
2017-11-06T03:22:20.679Z,5.13
2017-11-06T03:24:48.593Z,5.90
2017-11-06T03:27:16.126Z,5.13
2017-11-06T03:29:43.649Z,5.33
2017-11-06T03:32:11.347Z,5.63
2017-11-06T03:34:39.016Z,5.00
2017-11-06T03:37:06.571Z,5.40
2017-11-06T03:39:34.243Z,4.57
2017-11-06T03:42:01.847Z,5.17
2017-11-06T03:44:29.380Z,5.03
2017-11-06T03:46:56.904Z,4.70
2017-11-06T03:49:24.456Z,5.57
2017-11-06T03:51:52.563Z,4.83
2017-11-06T03:54:20.105Z,5.07
2017-11-06T03:56:47.641Z,5.80
2017-11-06T03:59:15.477Z,5.37
2017-11-06T04:01:43.026Z,4.53
2017-11-06T04:04:10.573Z,5.93
2017-11-06T04:06:38.115Z,5.70
2017-11-06T04:09:05.644Z,5.83
2017-11-06T04:11:33.196Z,5.93
2017-11-06T04:14:00.734Z,5.80
2017-11-06T04:16:28.807Z,5.83
2017-11-06T04:18:57.034Z,5.43
2017-11-06T04:21:24.588Z,6.40
2017-11-06T04:23:52.157Z,6.10
2017-11-06T04:26:19.683Z,5.50
2017-11-06T04:28:47.626Z,6.47
2017-11-06T04:31:15.227Z,5.40
2017-11-06T04:33:44.698Z,6.10
2017-11-06T04:36:12.248Z,7.00
2017-11-06T04:38:39.798Z,6.57
2017-11-06T04:41:07.344Z,7.10
2017-11-06T04:43:34.968Z,6.20
2017-11-06T04:46:02.558Z,6.60
2017-11-06T04:48:30.104Z,6.93
2017-11-06T04:50:57.937Z,7.10
2017-11-06T04:53:25.470Z,6.27
2017-11-06T04:55:53.013Z,7.47
2017-11-06T04:58:20.555Z,6.63
2017-11-06T05:00:48.100Z,7.00
2017-11-06T05:03:16.009Z,6.80
2017-11-06T05:05:43.968Z,6.10
2017-11-06T05:08:11.543Z,7.17
2017-11-06T05:10:39.103Z,7.60
2017-11-06T05:13:06.638Z,6.80
2017-11-06T05:15:34.301Z,7.70
2017-11-06T05:18:01.852Z,7.37
2017-11-06T05:20:29.376Z,7.00
2017-11-06T05:22:57.084Z,8.37
2017-11-06T05:25:24.628Z,8.30
2017-11-06T05:27:52.168Z,7.93
2017-11-06T05:30:20.082Z,7.80
2017-11-06T05:32:47.632Z,8.07
2017-11-06T05:35:15.278Z,7.57
2017-11-06T05:37:42.860Z,8.30
2017-11-06T05:40:10.410Z,7.80
2017-11-06T05:42:37.967Z,7.50
2017-11-06T05:45:05.540Z,7.57
2017-11-06T05:47:33.082Z,7.87
2017-11-06T05:50:00.644Z,6.60
2017-11-06T05:52:28.192Z,7.87
2017-11-06T05:54:55.762Z,8.00
2017-11-06T05:57:23.302Z,7.20
2017-11-06T05:59:50.856Z,7.40
2017-11-06T06:02:18.513Z,7.13
2017-11-06T06:04:46.052Z,7.80
2017-11-06T06:07:13.782Z,6.80
2017-11-06T06:09:41.336Z,8.10
2017-11-06T06:12:09.455Z,8.23
2017-11-06T06:14:37.007Z,7.40
2017-11-06T06:17:04.554Z,9.10
2017-11-06T06:19:32.118Z,8.57
2017-11-06T06:21:59.677Z,8.70
2017-11-06T06:24:27.603Z,8.83
2017-11-06T06:26:55.147Z,8.23
2017-11-06T06:29:22.788Z,7.40
2017-11-06T06:31:50.346Z,8.97
2017-11-06T06:34:17.889Z,9.27
2017-11-06T06:36:45.445Z,9.10
2017-11-06T06:39:12.994Z,10.07
2017-11-06T06:41:40.826Z,10.53
2017-11-06T06:44:08.373Z,8.90
2017-11-06T06:46:35.909Z,10.13
2017-11-06T06:49:03.471Z,10.87
2017-11-06T06:51:31.007Z,9.63
2017-11-06T06:53:58.566Z,8.70
2017-11-06T06:56:26.107Z,9.40
2017-11-06T06:58:53.642Z,9.77
2017-11-06T07:01:21.195Z,9.03
2017-11-06T07:03:48.747Z,9.47
2017-11-06T07:06:16.317Z,9.57
2017-11-06T07:08:43.851Z,9.13
2017-11-06T07:11:11.533Z,8.80
2017-11-06T07:13:39.080Z,9.90
2017-11-06T07:16:06.972Z,10.53
2017-11-06T07:18:34.502Z,10.43
2017-11-06T07:21:02.043Z,10.67
2017-11-06T07:23:29.607Z,10.97
2017-11-06T07:25:57.149Z,14.40
2017-11-06T07:28:25.095Z,14.47
2017-11-06T07:30:52.654Z,15.60
2017-11-06T07:33:20.225Z,18.20
2017-11-06T07:35:47.834Z,18.87
2017-11-06T07:38:15.386Z,18.87
2017-11-06T07:40:43.012Z,18.97
2017-11-06T07:43:10.680Z,17.77
2017-11-06T07:45:38.342Z,18.23
2017-11-06T07:48:05.901Z,19.17
2017-11-06T07:50:33.547Z,20.90
2017-11-06T07:53:01.096Z,19.17
2017-11-06T07:55:28.639Z,20.17
2017-11-06T07:57:56.209Z,19.93
2017-11-06T08:00:23.740Z,20.90
2017-11-06T08:02:51.666Z,20.60
2017-11-06T08:05:19.209Z,21.50
2017-11-06T08:07:46.803Z,21.17
2017-11-06T08:10:14.484Z,19.93
2017-11-06T08:12:42.143Z,18.80
2017-11-06T08:15:09.728Z,19.23
2017-11-06T08:17:37.273Z,19.83
2017-11-06T08:20:04.819Z,20.80
2017-11-06T08:22:32.389Z,19.57
2017-11-06T08:25:00.016Z,20.50
2017-11-06T08:27:27.583Z,21.20
2017-11-06T08:29:55.129Z,21.30
2017-11-06T08:32:22.676Z,20.87
2017-11-06T08:34:50.244Z,20.70
2017-11-06T08:37:17.795Z,20.00
2017-11-06T08:39:45.354Z,19.60
2017-11-06T08:42:13.005Z,18.73
2017-11-06T08:44:40.583Z,17.10
2017-11-06T08:47:08.140Z,17.97
2017-11-06T08:49:35.693Z,17.90
2017-11-06T08:52:03.305Z,19.07
2017-11-06T08:54:30.864Z,17.80
2017-11-06T08:56:58.454Z,17.30
2017-11-06T08:59:26.004Z,15.80
2017-11-06T09:01:53.572Z,15.60
2017-11-06T09:04:21.208Z,16.37
2017-11-06T09:06:48.992Z,16.50
2017-11-06T09:09:16.542Z,17.07
2017-11-06T09:11:44.088Z,15.70
2017-11-06T09:14:11.651Z,15.13
2017-11-06T09:16:39.203Z,14.93
2017-11-06T09:19:06.765Z,17.50
2017-11-06T09:21:34.329Z,16.40
2017-11-06T09:24:01.895Z,15.33
2017-11-06T09:26:29.456Z,15.20
2017-11-06T09:28:57.384Z,14.80
2017-11-06T09:31:24.929Z,15.70
2017-11-06T09:33:52.474Z,15.00
2017-11-06T09:36:20.051Z,14.10
2017-11-06T09:38:47.605Z,13.37
2017-11-06T09:41:15.189Z,14.60
2017-11-06T09:43:42.739Z,12.50
2017-11-06T09:46:10.282Z,12.63
2017-11-06T09:48:37.848Z,13.33
2017-11-06T09:51:05.401Z,13.73
2017-11-06T09:53:33.279Z,12.90
2017-11-06T09:56:00.830Z,12.83
2017-11-06T09:58:28.377Z,13.40
2017-11-06T10:00:55.936Z,12.50
2017-11-06T10:03:23.492Z,11.93
2017-11-06T10:05:51.053Z,12.63
2017-11-06T10:08:18.580Z,12.30
2017-11-06T10:10:46.160Z,11.83
2017-11-06T10:13:13.712Z,12.00
2017-11-06T10:15:41.273Z,10.93
2017-11-06T10:18:08.915Z,12.07
2017-11-06T10:20:36.487Z,11.63
2017-11-06T10:23:04.413Z,10.03
2017-11-06T10:25:32.051Z,12.03
2017-11-06T10:27:59.598Z,11.40
2017-11-06T10:30:27.164Z,10.90
2017-11-06T10:32:54.697Z,11.60
2017-11-06T10:35:22.318Z,10.97
2017-11-06T10:37:49.886Z,12.00
2017-11-06T10:40:17.515Z,9.40
2017-11-06T10:42:45.233Z,10.13
2017-11-06T10:45:12.789Z,10.33
2017-11-06T10:47:40.354Z,9.77
2017-11-06T10:50:07.892Z,9.80
2017-11-06T10:52:35.447Z,9.63
2017-11-06T10:55:03.015Z,9.73
2017-11-06T10:57:30.566Z,9.10
2017-11-06T10:59:58.130Z,9.50
2017-11-06T11:02:25.703Z,9.70
2017-11-06T11:04:53.342Z,9.33
2017-11-06T11:07:20.904Z,9.97
2017-11-06T11:09:48.476Z,9.90
2017-11-06T11:12:16.193Z,9.23
2017-11-06T11:14:43.766Z,10.47
2017-11-06T11:17:11.396Z,9.37
2017-11-06T11:19:38.942Z,9.00
2017-11-06T11:22:06.518Z,9.67
2017-11-06T11:24:34.184Z,8.80
2017-11-06T11:27:02.089Z,8.90
2017-11-06T11:29:29.711Z,8.83
2017-11-06T11:31:57.329Z,8.93
2017-11-06T11:34:24.899Z,9.53
2017-11-06T11:36:52.434Z,9.03
2017-11-06T11:39:20.092Z,8.20
2017-11-06T11:41:47.617Z,8.60
2017-11-06T11:44:15.160Z,8.30
2017-11-06T11:46:42.741Z,8.10
2017-11-06T11:49:10.300Z,7.30
2017-11-06T11:51:37.889Z,7.83
2017-11-06T11:54:05.437Z,7.97
2017-11-06T11:56:33.106Z,8.10
2017-11-06T11:59:00.669Z,7.87
2017-11-06T12:01:28.206Z,8.03
2017-11-06T12:03:55.761Z,7.70
2017-11-06T12:06:23.317Z,7.50
2017-11-06T12:08:50.890Z,7.20
2017-11-06T12:11:18.431Z,7.57
2017-11-06T12:13:45.971Z,7.20
2017-11-06T12:16:13.536Z,6.70
2017-11-06T12:18:41.190Z,7.37
2017-11-06T12:21:08.750Z,7.00
2017-11-06T12:23:36.306Z,7.67
2017-11-06T12:26:03.866Z,9.07
2017-11-06T12:28:31.461Z,7.77
2017-11-06T12:30:59.007Z,6.80
2017-11-06T12:33:26.590Z,7.10
2017-11-06T12:35:54.132Z,7.33
2017-11-06T12:38:21.701Z,7.37
2017-11-06T12:40:49.255Z,7.43
2017-11-06T12:43:16.817Z,6.80
2017-11-06T12:45:44.397Z,7.93
2017-11-06T12:48:11.986Z,8.00
2017-11-06T12:50:39.840Z,9.20
2017-11-06T12:53:07.375Z,7.10
2017-11-06T12:55:34.961Z,16.57
2017-11-06T12:58:02.561Z,11.10
2017-11-06T13:00:30.107Z,7.90
2017-11-06T13:02:59.130Z,7.77
2017-11-06T13:05:26.663Z,8.00
2017-11-06T13:07:54.531Z,7.57
2017-11-06T13:10:22.136Z,8.40
2017-11-06T13:12:49.911Z,8.20
2017-11-06T13:15:17.484Z,8.00
2017-11-06T13:17:45.193Z,7.60
2017-11-06T13:20:12.759Z,8.03
2017-11-06T13:22:40.314Z,8.00
2017-11-06T13:25:07.852Z,7.43
2017-11-06T13:27:35.558Z,7.57
2017-11-06T13:30:03.104Z,7.50
2017-11-06T13:32:30.769Z,7.43
2017-11-06T13:34:58.422Z,6.73
2017-11-06T13:37:25.997Z,7.03
2017-11-06T13:39:53.556Z,8.00
2017-11-06T13:42:21.106Z,6.90
2017-11-06T13:44:48.695Z,8.40
2017-11-06T13:47:16.237Z,8.87
2017-11-06T13:49:43.795Z,8.03
2017-11-06T13:52:11.352Z,7.67
2017-11-06T13:54:38.956Z,7.60
2017-11-06T13:57:06.496Z,6.90
2017-11-06T13:59:34.057Z,9.07
2017-11-06T14:02:01.722Z,7.17
2017-11-06T14:04:29.288Z,6.80
2017-11-06T14:06:56.853Z,6.67
2017-11-06T14:09:24.401Z,7.00
2017-11-06T14:11:51.957Z,7.20
2017-11-06T14:14:19.532Z,7.20
2017-11-06T14:16:47.193Z,8.20
2017-11-06T14:19:14.934Z,8.40
2017-11-06T14:21:42.622Z,10.73
2017-11-06T14:24:10.264Z,9.37
2017-11-06T14:26:37.801Z,10.50
2017-11-06T14:29:05.739Z,11.20
2017-11-06T14:31:33.297Z,23.00
2017-11-06T14:34:00.850Z,32.60
2017-11-06T14:36:28.422Z,43.33
2017-11-06T14:38:56.011Z,41.00
2017-11-06T14:41:23.604Z,25.90
2017-11-06T14:43:51.148Z,25.20
2017-11-06T14:46:19.052Z,9.23
2017-11-06T14:48:46.646Z,10.20
2017-11-06T14:51:14.210Z,9.37
2017-11-06T14:53:41.828Z,10.40
2017-11-06T14:56:09.361Z,9.70
2017-11-06T14:58:36.928Z,8.33
2017-11-06T15:01:04.794Z,8.47
2017-11-06T15:03:32.372Z,7.73
2017-11-06T15:05:59.970Z,9.03
2017-11-06T15:08:27.527Z,9.20
2017-11-06T15:10:55.090Z,7.70
2017-11-06T15:13:22.643Z,7.60
2017-11-06T15:15:50.650Z,8.30
2017-11-06T15:18:18.198Z,8.93
2017-11-06T15:20:45.752Z,8.33
2017-11-06T15:23:13.324Z,9.23
2017-11-06T15:25:40.870Z,7.93
2017-11-06T15:28:08.457Z,7.27
2017-11-06T15:30:35.987Z,8.37
2017-11-06T15:33:03.588Z,8.20
2017-11-06T15:35:31.210Z,9.03
2017-11-06T15:37:59.114Z,9.33
2017-11-06T15:40:26.729Z,8.47
2017-11-06T15:42:54.330Z,8.43
2017-11-06T15:45:21.944Z,9.20
2017-11-06T15:47:49.488Z,9.53
2017-11-06T15:50:17.076Z,9.47
2017-11-06T15:52:44.635Z,9.33
2017-11-06T15:55:12.254Z,10.03
2017-11-06T15:57:39.809Z,9.60
2017-11-06T16:00:07.359Z,10.60
2017-11-06T16:02:34.950Z,10.10
2017-11-06T16:05:03.202Z,10.67
2017-11-06T16:07:30.792Z,10.23
2017-11-06T16:09:58.366Z,18.80
2017-11-06T16:12:26.426Z,12.40
2017-11-06T16:14:54.025Z,10.13
2017-11-06T16:17:21.663Z,15.73
2017-11-06T16:19:49.263Z,11.37
2017-11-06T16:22:16.827Z,12.13
2017-11-06T16:24:44.498Z,15.77
2017-11-06T16:27:12.048Z,11.43
2017-11-06T16:29:39.955Z,18.70
2017-11-06T16:32:07.537Z,13.43
2017-11-06T16:34:35.161Z,12.13
2017-11-06T16:37:02.893Z,12.87
2017-11-06T16:39:30.548Z,12.33
2017-11-06T16:41:58.141Z,11.77
2017-11-06T16:44:25.735Z,12.60
2017-11-06T16:46:53.328Z,11.60
2017-11-06T16:49:20.891Z,12.87
2017-11-06T16:51:48.464Z,11.57
2017-11-06T16:54:16.041Z,13.00
2017-11-06T16:56:43.627Z,11.63
2017-11-06T16:59:11.217Z,12.90
2017-11-06T17:01:38.802Z,11.73
2017-11-06T17:04:06.411Z,12.00
2017-11-06T17:06:33.985Z,12.50
2017-11-06T17:09:01.564Z,13.60
2017-11-06T17:11:29.212Z,13.10
2017-11-06T17:13:56.933Z,14.67
2017-11-06T17:16:24.534Z,13.60
2017-11-06T17:18:52.072Z,13.53
2017-11-06T17:21:19.704Z,16.83
2017-11-06T17:23:47.290Z,14.83
2017-11-06T17:26:15.023Z,13.30
2017-11-06T17:28:42.591Z,13.90
2017-11-06T17:31:10.166Z,14.53
2017-11-06T17:33:37.764Z,13.43
2017-11-06T17:36:05.328Z,14.20
2017-11-06T17:38:32.939Z,17.10
2017-11-06T17:41:00.516Z,15.23
2017-11-06T17:43:28.084Z,16.13
2017-11-06T17:45:55.671Z,15.07
2017-11-06T17:48:23.266Z,15.53
2017-11-06T17:50:51.280Z,15.70
2017-11-06T17:53:18.840Z,16.20
2017-11-06T17:55:46.457Z,14.20
2017-11-06T17:58:14.476Z,27.87
2017-11-06T18:00:42.274Z,17.23
2017-11-06T18:03:09.891Z,16.17
2017-11-06T18:05:37.468Z,16.07
2017-11-06T18:08:05.435Z,17.20
2017-11-06T18:10:33.091Z,17.97
2017-11-06T18:13:00.852Z,16.77
2017-11-06T18:15:28.452Z,16.40
2017-11-06T18:17:56.049Z,16.70
2017-11-06T18:20:23.692Z,15.83
2017-11-06T18:22:51.257Z,18.33
2017-11-06T18:25:19.775Z,17.30
2017-11-06T18:27:47.847Z,17.97
2017-11-06T18:30:15.425Z,19.17
2017-11-06T18:32:43.115Z,19.33
2017-11-06T18:35:10.783Z,19.00
2017-11-06T18:37:38.371Z,18.20
2017-11-06T18:40:05.953Z,18.53
2017-11-06T18:42:33.590Z,18.40
2017-11-06T18:45:01.192Z,18.13
2017-11-06T18:47:29.136Z,19.37
2017-11-06T18:49:56.729Z,18.97
2017-11-06T18:52:24.326Z,17.50
2017-11-06T18:54:51.934Z,18.33
2017-11-06T18:57:19.543Z,17.03
2017-11-06T18:59:47.194Z,17.37
2017-11-06T19:02:14.840Z,18.17
2017-11-06T19:04:42.474Z,18.57
2017-11-06T19:07:10.459Z,18.93
2017-11-06T19:09:38.026Z,17.90
2017-11-06T19:12:05.692Z,18.70
2017-11-06T19:14:33.295Z,18.67
2017-11-06T19:17:00.975Z,18.10
2017-11-06T19:19:29.181Z,19.33
2017-11-06T19:21:56.842Z,21.93
2017-11-06T19:24:24.523Z,19.63
2017-11-06T19:26:52.186Z,18.60
2017-11-06T19:29:19.979Z,18.70
2017-11-06T19:31:47.605Z,19.70
2017-11-06T19:34:15.253Z,19.00
2017-11-06T19:36:42.892Z,19.90
2017-11-06T19:39:11.656Z,21.40
2017-11-06T19:41:39.372Z,20.50
2017-11-06T19:44:07.077Z,20.23
2017-11-06T19:46:34.836Z,18.93
2017-11-06T19:49:04.834Z,19.63
2017-11-06T19:51:33.491Z,19.67
2017-11-06T19:54:01.324Z,19.40
2017-11-06T19:56:29.435Z,20.43
2017-11-06T19:58:57.284Z,20.90
2017-11-06T20:01:25.271Z,22.63
2017-11-06T20:03:53.113Z,23.70
2017-11-06T20:06:20.876Z,22.17
2017-11-06T20:08:49.540Z,20.70
2017-11-06T20:11:17.743Z,20.77
2017-11-06T20:13:45.487Z,22.70
2017-11-06T20:16:13.389Z,21.50
2017-11-06T20:18:41.277Z,21.70
2017-11-06T20:21:09.151Z,21.47
2017-11-06T20:23:37.071Z,22.30
2017-11-06T20:26:04.949Z,20.30
2017-11-06T20:28:32.667Z,19.90
2017-11-06T20:31:00.600Z,21.03
2017-11-06T20:33:28.483Z,22.40
2017-11-06T20:35:56.431Z,20.63
2017-11-06T20:38:24.177Z,20.93
2017-11-06T20:40:51.908Z,19.77
2017-11-06T20:43:19.702Z,19.10
2017-11-06T20:45:48.902Z,22.87
2017-11-06T20:48:16.946Z,19.93
2017-11-06T20:50:45.458Z,20.10
2017-11-06T20:53:13.240Z,19.57
2017-11-06T20:55:41.083Z,20.43
2017-11-06T20:58:09.674Z,18.83
2017-11-06T21:00:38.722Z,21.17
2017-11-06T21:03:06.434Z,19.87
2017-11-06T21:05:34.222Z,22.10
2017-11-06T21:08:01.936Z,19.37
2017-11-06T21:10:29.596Z,21.80
2017-11-06T21:12:57.242Z,20.50
2017-11-06T21:15:25.014Z,23.20
2017-11-06T21:17:52.732Z,21.57
2017-11-06T21:20:20.345Z,24.53
2017-11-06T21:22:47.932Z,29.77
2017-11-06T21:25:15.723Z,20.83
2017-11-06T21:27:43.346Z,20.70
2017-11-06T21:30:16.598Z,20.73
2017-11-06T21:32:56.745Z,20.47
2017-11-06T21:35:24.527Z,23.00
2017-11-06T21:37:52.297Z,22.93
2017-11-06T21:40:19.918Z,23.40
2017-11-06T21:42:47.503Z,21.30
2017-11-06T21:45:15.435Z,19.37
2017-11-06T21:47:43.008Z,21.20
2017-11-06T21:50:10.576Z,19.40
2017-11-06T21:52:38.346Z,20.37
2017-11-06T21:55:05.911Z,23.03
2017-11-06T21:57:33.838Z,21.40
2017-11-06T22:00:01.419Z,18.03
2017-11-06T22:02:28.988Z,21.30
2017-11-06T22:04:56.563Z,23.23
2017-11-06T22:07:24.111Z,24.20
2017-11-06T22:09:51.779Z,20.97
2017-11-06T22:12:19.352Z,21.07
2017-11-06T22:14:46.912Z,19.43
2017-11-06T22:17:14.644Z,19.73
2017-11-06T22:19:42.204Z,20.50
2017-11-06T22:22:09.781Z,22.53
2017-11-06T22:24:37.350Z,20.60
2017-11-06T22:27:04.960Z,21.30
2017-11-06T22:29:32.540Z,20.47
2017-11-06T22:32:00.119Z,18.63
2017-11-06T22:34:27.701Z,20.30
2017-11-06T22:36:55.259Z,21.80
2017-11-06T22:39:24.040Z,19.87
2017-11-06T22:41:51.905Z,21.47
2017-11-06T22:44:19.526Z,18.47
2017-11-06T22:46:47.093Z,19.50
2017-11-06T22:49:14.713Z,18.40
2017-11-06T22:51:42.302Z,19.43
2017-11-06T22:54:09.839Z,20.73
2017-11-06T22:56:37.467Z,20.23
2017-11-06T22:59:05.028Z,19.90
2017-11-06T23:01:32.632Z,18.60
2017-11-06T23:04:00.199Z,18.97
2017-11-06T23:06:27.759Z,19.57
2017-11-06T23:08:55.421Z,19.43
2017-11-06T23:11:22.974Z,19.80
2017-11-06T23:13:50.535Z,18.10
2017-11-06T23:16:18.087Z,19.60
2017-11-06T23:18:45.984Z,18.90
2017-11-06T23:21:13.623Z,18.87
2017-11-06T23:23:41.218Z,21.07
2017-11-06T23:26:08.782Z,19.20
2017-11-06T23:28:36.326Z,19.97
2017-11-06T23:31:03.900Z,18.87
2017-11-06T23:33:31.543Z,20.00
2017-11-06T23:35:59.153Z,20.77
2017-11-06T23:38:26.701Z,19.77
2017-11-06T23:40:54.254Z,21.73
2017-11-06T23:43:21.934Z,20.80
2017-11-06T23:45:49.465Z,19.97
2017-11-06T23:48:17.033Z,18.97
2017-11-06T23:50:44.586Z,19.87
2017-11-06T23:53:12.525Z,19.03
2017-11-06T23:55:40.070Z,18.57
2017-11-06T23:58:07.625Z,19.70
